Latest Weather Observations for Norfolk Island

IDN60801

Issued at 2:22 am EDT Thursday 15 November 2018 (issued every 10 minutes, with the page automatically refreshed every 10 minutes)

About weather observations | Map of weather stations | Latest weather observations for NSW | Other Formats
Station Details ID: 200288 Name: NORFOLK ISLAND AERO Lat: -29.04 Lon: 167.94 Height: 111.73 m
Data from the previous 72 hours. | See also: Recent months at Norfolk Island
Date/Time
EDT
Temp
°C
App
Temp
°C
Dew
Point
°C
Rel
Hum
%
Delta-T
°C
Wind Press
QNH
hPa
Press
MSL
hPa
Rain since
9am
mm
Dir  Spd
km/h
Gust
km/h
Spd
kts
Gust
kts
15/02:00am 18.7 17.9 17.2 91 0.9 ESE 17 30 9 16 1018.0 1017.7 0.0
15/01:30am 18.6 17.7 16.9 90 1.0 ESE 17 24 9 13 1018.2 1017.9 0.0
15/01:27am 18.7 17.9 17.0 90 1.0 ESE 17 26 9 14 1018.3 1018.0 0.0
15/01:00am 19.0 18.0 16.6 86 1.4 ESE 17 28 9 15 1018.3 1018.0 0.0
15/12:30am 19.0 17.6 16.6 86 1.4 ESE 19 30 10 16 1018.4 1018.1 0.0
15/12:00am 18.9 17.4 16.7 87 1.3 ESE 20 33 11 18 1018.8 1018.5 0.0
 
Date/Time
EDT
Temp
°C
App
Temp
°C
Dew
Point
°C
Rel
Hum
%
Delta-T
°C
Wind Press
QNH
hPa
Press
MSL
hPa
Rain since
9am
mm
Dir  Spd
km/h
Gust
km/h
Spd
kts
Gust
kts
14/11:30pm 19.0 17.6 17.0 88 1.2 ESE 20 30 11 16 1019.1 1018.8 0.0
14/11:03pm 18.5 16.6 16.8 90 1.0 E 22 39 12 21 1019.3 1019.0 0.0
14/11:00pm 18.5 16.6 16.8 90 1.0 ESE 22 39 12 21 1019.3 1019.0 0.0
14/10:55pm 18.5 16.7 17.0 91 0.9 E 22 39 12 21 1019.3 1019.0 0.0
14/10:41pm 19.1 18.0 17.2 89 1.2 ESE 19 32 10 17 1019.2 1018.9 0.0
14/10:30pm 19.2 17.4 17.0 87 1.3 E 22 33 12 18 1019.2 1018.9 0.0
14/10:00pm 19.0 16.1 17.0 88 1.2 E 28 37 15 20 1019.3 1019.0 0.0
14/09:53pm 18.9 17.1 17.0 89 1.2 E 22 37 12 20 1019.3 1019.0 0.0
14/09:30pm 18.8 16.1 16.6 87 1.3 E 26 35 14 19 1019.2 1018.9 0.0
14/09:00pm 18.5 15.4 16.5 88 1.2 E 28 41 15 22 1019.3 1019.0 0.0
14/08:30pm 19.4 18.1 17.2 87 1.3 ESE 20 32 11 17 1019.1 1018.8 0.0
14/08:00pm 19.4 17.7 17.2 87 1.3 ESE 22 30 12 16 1019.0 1018.7 0.0
14/07:30pm 19.2 17.4 17.0 87 1.3 ESE 22 32 12 17 1018.6 1018.3 0.0
14/07:00pm 19.1 16.4 16.7 86 1.4 ESE 26 35 14 19 1018.4 1018.1 0.0
14/06:30pm 19.2 17.3 16.8 86 1.5 ESE 22 32 12 17 1018.1 1017.8 0.0
14/06:00pm 19.8 16.8 16.8 83 1.8 E 28 37 15 20 1017.7 1017.4 0.0
14/05:38pm 19.8 16.3 16.4 81 2.1 ESE 30 41 16 22 1017.5 1017.2 0.0
14/05:30pm 19.9 16.4 16.5 81 2.1 E 30 39 16 21 1017.5 1017.2 0.0
14/05:00pm 19.9 17.4 17.1 84 1.7 E 26 37 14 20 1017.3 1017.0 0.0
14/04:59pm 19.9 17.0 17.1 84 1.7 E 28 37 15 20 1017.2 1016.9 0.0
14/04:30pm 21.2 19.3 16.6 75 2.8 ESE 22 35 12 19 1017.1 1016.8 0.0
14/04:00pm 21.0 17.1 16.4 75 2.8 ESE 32 52 17 28 1017.0 1016.7 0.0
14/03:52pm 20.6 17.6 16.8 79 2.3 E 28 46 15 25 1016.9 1016.6 0.0
14/03:51pm 20.7 17.8 17.1 80 2.2 E 28 46 15 25 1016.9 1016.6 0.0
14/03:38pm 20.9 17.6 16.9 78 2.4 ESE 30 43 16 23 1017.0 1016.7 0.0
14/03:31pm 21.0 17.7 17.0 78 2.5 ESE 30 43 16 23 1017.0 1016.7 0.0
14/03:30pm 21.2 17.9 17.0 77 2.6 ESE 30 43 16 23 1017.1 1016.8 0.0
14/03:21pm 21.0 18.1 17.0 78 2.5 ESE 28 46 15 25 1017.0 1016.7 0.0
14/03:00pm 21.5 18.2 17.1 76 2.7 E 30 37 16 20 1016.9 1016.6 0.0
14/02:30pm 20.5 18.5 17.3 82 2.0 SE 24 44 13 24 1016.9 1016.6 0.0
14/02:02pm 20.5 17.7 17.3 82 2.0 ESE 28 48 15 26 1017.0 1016.7 0.0
14/02:00pm 20.4 17.9 17.2 82 2.0 ESE 26 48 14 26 1017.1 1016.8 0.0
14/01:55pm 20.4 17.4 16.8 80 2.2 ESE 28 48 15 26 1017.0 1016.7 0.0
14/01:30pm 20.7 18.1 17.7 83 1.9 ESE 28 43 15 23 1017.2 1016.9 0.0
14/01:07pm 20.8 18.1 17.6 82 2.0 ESE 28 46 15 25 1017.3 1017.0 0.0
14/01:00pm 20.6 18.4 17.8 84 1.7 ESE 26 39 14 21 1017.4 1017.1 0.0
14/12:56pm 20.4 18.2 17.8 85 1.6 ESE 26 39 14 21 1017.4 1017.1 0.0
14/12:39pm 20.2 17.5 17.6 85 1.6 ESE 28 46 15 25 1017.5 1017.2 0.0
14/12:38pm 20.3 17.6 17.5 84 1.7 ESE 28 46 15 25 1017.5 1017.2 0.0
14/12:30pm 21.3 19.1 17.9 81 2.1 ESE 26 41 14 22 1017.5 1017.2 0.0
14/12:19pm 21.9 20.1 17.9 78 2.5 ESE 24 33 13 18 1017.6 1017.3 0.0
14/12:09pm 22.3 19.3 17.7 75 2.9 E 30 54 16 29 1017.6 1017.3 0.0
14/12:00pm 21.9 17.7 17.1 74 3.0 E 35 54 19 29 1017.7 1017.4 0.0
14/11:30am 22.1 19.5 17.7 76 2.7 E 28 41 15 22 1017.9 1017.6 0.0
14/11:00am 21.8 18.5 18.0 79 2.4 ESE 32 46 17 25 1018.1 1017.8 0.0
14/10:30am 21.1 19.1 17.5 80 2.2 ESE 24 35 13 19 1018.3 1018.0 0.0
14/10:15am 21.8 18.6 17.2 75 2.8 ESE 30 48 16 26 1018.3 1018.0 0.0
14/10:09am 21.1 17.4 17.5 80 2.2 ESE 33 48 18 26 1018.3 1018.0 0.0
14/10:00am 21.4 18.0 17.8 80 2.2 ESE 32 48 17 26 1018.3 1018.0 0.0
14/09:58am 21.1 18.0 17.5 80 2.2 ESE 30 48 16 26 1018.3 1018.0 0.0
14/09:45am 21.6 18.8 17.2 76 2.7 ESE 28 41 15 22 1018.2 1017.9 0.0
14/09:33am 21.7 18.1 17.3 76 2.7 E 32 50 17 27 1018.2 1017.9 0.0
14/09:30am 21.8 19.0 17.2 75 2.8 E 28 43 15 23 1018.2 1017.9 0.0
14/09:05am 21.5 18.5 17.7 79 2.4 ESE 30 48 16 26 1018.3 1018.0 0.0
14/09:00am 22.1 18.7 17.7 76 2.7 E 32 46 17 25 1018.2 1017.9 0.0
14/08:41am 21.1 17.9 17.3 79 2.3 ESE 30 37 16 20 1018.2 1017.9 0.0
14/08:30am 20.8 17.4 16.8 78 2.4 ESE 30 43 16 23 1018.3 1018.0 0.0
14/08:00am 21.6 18.5 17.4 77 2.6 ESE 30 50 16 27 1018.0 1017.7 0.0
14/07:35am 21.4 17.6 17.2 77 2.6 E 33 52 18 28 1018.0 1017.7 0.0
14/07:30am 21.3 17.0 16.9 76 2.7 E 35 52 19 28 1017.9 1017.6 0.0
14/07:17am 20.8 16.5 16.8 78 2.4 E 35 52 19 28 1018.1 1017.8 0.0
14/07:12am 20.4 16.3 16.4 78 2.4 E 33 52 18 28 1018.0 1017.7 0.0
14/07:00am 20.8 17.2 17.2 80 2.2 E 32 44 17 24 1017.8 1017.5 0.0
14/06:56am 20.5 17.7 17.3 82 2.0 E 28 39 15 21 1017.8 1017.5 0.0
14/06:30am 20.1 17.3 17.3 84 1.7 E 28 44 15 24 1017.5 1017.2 0.0
14/06:25am 20.0 17.2 17.2 84 1.7 E 28 44 15 24 1017.5 1017.2 0.0
14/06:12am 19.9 17.0 17.1 84 1.7 E 28 41 15 22 1017.5 1017.2 0.0
14/06:09am 20.0 16.7 17.0 83 1.8 E 30 41 16 22 1017.4 1017.1 0.0
14/06:00am 20.0 16.2 16.6 81 2.1 E 32 48 17 26 1017.3 1017.0 0.0
14/05:53am 19.8 16.4 16.8 83 1.8 E 30 48 16 26 1017.3 1017.0 0.0
14/05:30am 19.3 16.7 16.9 86 1.5 E 26 39 14 21 1017.1 1016.8 0.0
14/05:00am 19.0 17.0 17.5 91 0.9 E 24 39 13 21 1016.7 1016.4 0.0
14/04:38am 18.8 16.3 17.1 90 1.0 E 26 33 14 18 1016.5 1016.2 0.0
14/04:30am 18.8 16.2 16.8 88 1.2 E 26 33 14 18 1016.5 1016.2 0.0
14/04:20am 18.7 16.3 16.5 87 1.3 E 24 37 13 20 1016.5 1016.2 0.0
14/04:00am 18.9 16.3 16.9 88 1.2 E 26 37 14 20 1016.4 1016.1 0.0
14/03:31am 18.8 16.2 16.8 88 1.2 E 26 41 14 22 1016.3 1016.0 0.0
14/03:30am 18.8 16.1 16.6 87 1.3 E 26 41 14 22 1016.3 1016.0 0.0
14/03:00am 18.5 15.8 16.7 89 1.1 E 26 33 14 18 1016.4 1016.1 0.0
14/02:47am 18.7 16.0 16.7 88 1.2 E 26 37 14 20 1016.5 1016.2 0.0
14/02:30am 18.8 16.7 17.1 90 1.0 E 24 32 13 17 1016.5 1016.2 0.0
14/02:00am 19.0 16.1 17.0 88 1.2 E 28 39 15 21 1016.6 1016.3 0.0
14/01:35am 18.9 16.7 16.9 88 1.2 E 24 33 13 18 1016.7 1016.4 0.0
14/01:30am 18.9 16.6 16.7 87 1.3 E 24 33 13 18 1016.7 1016.4 0.0
14/01:15am 18.9 16.2 16.5 86 1.4 E 26 35 14 19 1016.4 1016.1 0.0
14/01:00am 19.0 16.0 16.8 87 1.3 E 28 37 15 20 1016.5 1016.2 0.0
14/12:30am 19.0 16.9 17.1 89 1.2 E 24 33 13 18 1016.9 1016.6 0.0
14/12:29am 19.1 17.0 17.2 89 1.2 E 24 33 13 18 1016.9 1016.6 0.0
14/12:00am 19.4 17.1 16.6 84 1.7 E 24 33 13 18 1017.2 1016.9 0.0
 
Date/Time
EDT
Temp
°C
App
Temp
°C
Dew
Point
°C
Rel
Hum
%
Delta-T
°C
Wind Press
QNH
hPa
Press
MSL
hPa
Rain since
9am
mm
Dir  Spd
km/h
Gust
km/h
Spd
kts
Gust
kts
13/11:30pm 19.5 18.2 16.9 85 1.6 E 19 28 10 15 1017.6 1017.3 0.0
13/11:00pm 19.5 18.7 17.1 86 1.5 E 17 24 9 13 1018.0 1017.7 0.0
13/10:30pm 19.4 18.5 16.8 85 1.6 E 17 28 9 15 1018.1 1017.8 0.0
13/10:00pm 19.4 17.9 16.4 83 1.8 ESE 19 30 10 16 1018.3 1018.0 0.0
13/09:30pm 19.4 17.9 16.2 82 1.9 E 19 30 10 16 1018.5 1018.2 0.0
13/09:00pm 19.4 17.9 16.4 83 1.8 E 19 28 10 15 1018.4 1018.1 0.0
13/08:30pm 19.6 18.1 16.3 81 2.0 E 19 28 10 15 1018.4 1018.1 0.0
13/08:00pm 19.5 17.8 16.2 81 2.0 E 20 28 11 15 1018.3 1018.0 0.0
13/07:30pm 19.4 16.8 15.9 80 2.1 E 24 35 13 19 1018.0 1017.7 0.0
13/07:00pm 19.4 17.9 16.2 82 1.9 E 19 26 10 14 1018.0 1017.7 0.0
13/06:30pm 19.3 17.7 16.0 81 2.0 E 19 28 10 15 1017.8 1017.5 0.0
13/06:00pm 19.6 18.2 15.5 77 2.4 ESE 17 26 9 14 1017.4 1017.1 0.0
13/05:30pm 20.1 18.4 15.7 76 2.6 ESE 19 26 10 14 1017.0 1016.7 0.0
13/05:00pm 19.9 18.9 15.5 76 2.6 ESE 15 26 8 14 1016.7 1016.4 0.0
13/04:30pm 19.7 18.2 16.7 83 1.8 SSE 20 26 11 14 1016.7 1016.4 0.0
13/04:00pm 20.7 19.9 17.1 80 2.2 SE 17 26 9 14 1016.7 1016.4 0.0
13/03:30pm 21.5 19.0 16.2 72 3.2 E 24 33 13 18 1016.7 1016.4 0.0
13/03:00pm 20.8 18.8 16.4 76 2.7 ESE 22 30 12 16 1016.5 1016.2 0.0
13/02:30pm 22.1 19.3 16.4 70 3.5 E 26 35 14 19 1016.7 1016.4 0.0
13/02:00pm 21.9 18.4 15.5 67 3.8 E 28 35 15 19 1016.9 1016.6 0.0
13/01:30pm 22.2 19.3 17.1 73 3.1 E 28 39 15 21 1017.1 1016.8 0.0
13/01:00pm 22.0 19.9 17.2 74 3.0 E 24 35 13 19 1017.5 1017.2 0.0
13/12:30pm 21.2 18.0 16.4 74 2.9 E 28 39 15 21 1017.7 1017.4 0.0
13/12:00pm 21.9 19.0 17.1 74 3.0 E 28 41 15 22 1018.2 1017.9 0.0
13/11:30am 21.7 19.0 16.6 73 3.1 E 26 37 14 20 1018.2 1017.9 0.0
13/11:00am 22.1 19.9 16.8 72 3.2 E 24 33 13 18 1018.3 1018.0 0.0
13/10:30am 22.3 19.4 15.2 64 4.2 E 24 33 13 18 1018.5 1018.2 0.0
13/10:00am 21.3 18.4 17.1 77 2.6 E 28 39 15 21 1018.5 1018.2 0.0
13/09:30am 20.7 18.9 16.9 79 2.3 ESE 22 32 12 17 1018.5 1018.2 0.0
13/09:00am 20.8 20.3 17.0 79 2.3 ESE 15 30 8 16 1018.5 1018.2 5.4
13/08:30am 18.9 18.5 16.1 84 1.7 ESE 13 15 7 8 1018.6 1018.3 5.4
13/08:00am 19.1 19.1 16.3 84 1.7 ESE 11 17 6 9 1018.6 1018.3 5.4
13/07:33am 18.0 16.9 16.3 90 1.0 ESE 17 26 9 14 1018.7 1018.4 5.4
13/07:30am 17.9 16.8 16.4 91 0.9 ESE 17 26 9 14 1018.8 1018.5 5.4
13/07:25am 17.9 16.7 16.2 90 1.0 ESE 17 26 9 14 1018.8 1018.5 5.4
13/07:09am 18.1 16.4 16.3 89 1.1 E 20 33 11 18 1018.9 1018.6 5.2
13/07:00am 18.9 18.4 16.9 88 1.2 ESE 15 19 8 10 1018.8 1018.5 5.0
13/06:59am 19.0 18.5 17.0 88 1.2 ESE 15 19 8 10 1018.8 1018.5 5.0
13/06:30am 18.9 18.8 17.0 89 1.2 E 13 17 7 9 1018.4 1018.1 5.0
13/06:00am 19.2 19.0 17.5 90 1.0 E 15 19 8 10 1018.3 1018.0 5.0
13/05:59am 19.2 19.0 17.5 90 1.0 E 15 19 8 10 1018.3 1018.0 5.0
13/05:57am 19.2 19.0 17.7 91 0.9 E 15 19 8 10 1018.3 1018.0 5.0
13/05:44am 18.7 17.6 17.4 92 0.8 E 19 32 10 17 1018.2 1017.9 5.0
13/05:37am 18.3 18.4 16.6 90 1.0 E 11 30 6 16 1018.3 1018.0 2.2
13/05:30am 18.2 18.6 16.2 88 1.2 E 9 15 5 8 1018.1 1017.8 0.0
13/05:00am 17.7 17.2 15.9 89 1.1 E 13 15 7 8 1017.9 1017.6 0.0
13/04:30am 18.1 17.6 15.9 87 1.3 ENE 13 17 7 9 1017.5 1017.2 0.0
13/04:00am 18.5 17.7 16.1 86 1.4 E 15 19 8 10 1017.3 1017.0 0.0
13/03:30am 18.3 17.9 16.3 88 1.2 E 13 17 7 9 1017.4 1017.1 0.0
13/03:00am 17.8 17.3 16.0 89 1.1 ENE 13 15 7 8 1017.3 1017.0 0.0
13/02:30am 17.9 17.5 16.1 89 1.1 E 13 17 7 9 1017.3 1017.0 0.0
13/02:00am 18.2 17.8 16.2 88 1.2 E 13 15 7 8 1017.3 1017.0 0.0
13/01:30am 18.5 18.1 16.3 87 1.3 E 13 17 7 9 1017.6 1017.3 0.0
13/01:00am 18.4 17.9 16.0 86 1.4 ENE 13 17 7 9 1018.1 1017.8 0.0
13/12:30am 18.7 18.3 16.3 86 1.4 ENE 13 19 7 10 1018.2 1017.9 0.0
13/12:00am 18.6 18.1 16.0 85 1.5 ENE 13 17 7 9 1018.6 1018.3 0.0
 
Date/Time
EDT
Temp
°C
App
Temp
°C
Dew
Point
°C
Rel
Hum
%
Delta-T
°C
Wind Press
QNH
hPa
Press
MSL
hPa
Rain since
9am
mm
Dir  Spd
km/h
Gust
km/h
Spd
kts
Gust
kts
12/11:30pm 18.6 17.8 16.0 85 1.6 ENE 15 19 8 10 1018.8 1018.5 0.0
12/11:00pm 18.6 17.8 16.0 85 1.5 ENE 15 19 8 10 1019.1 1018.8 0.0
12/10:30pm 18.1 18.1 16.3 89 1.1 ENE 11 13 6 7 1019.3 1019.0 0.0
12/10:00pm 18.2 18.1 16.0 87 1.3 E 11 15 6 8 1019.3 1019.0 0.0
12/09:30pm 18.3 17.9 16.1 87 1.3 E 13 15 7 8 1019.5 1019.2 0.0
12/09:00pm 18.3 18.3 16.3 88 1.2 ENE 11 13 6 7 1019.5 1019.2 0.0
12/08:30pm 18.7 18.4 16.5 87 1.3 E 13 15 7 8 1019.4 1019.1 0.0
12/08:00pm 18.7 18.3 16.3 86 1.4 E 13 15 7 8 1019.3 1019.0 0.0
12/07:30pm 18.7 18.6 15.9 84 1.7 E 11 15 6 8 1019.4 1019.1 0.0
12/07:00pm 18.9 18.5 16.1 84 1.7 E 13 19 7 10 1019.1 1018.8 0.0
12/06:30pm 19.0 18.3 16.4 85 1.6 ENE 15 19 8 10 1018.9 1018.6 0.0
12/06:00pm 19.4 18.2 16.1 81 2.0 E 17 22 9 12 1018.6 1018.3 0.0
12/05:30pm 19.8 18.7 16.3 80 2.1 E 17 24 9 13 1018.2 1017.9 0.0
12/05:00pm 20.0 18.4 16.4 80 2.2 E 20 28 11 15 1017.9 1017.6 0.0
12/04:30pm 21.0 19.6 17.0 78 2.5 E 20 26 11 14 1018.1 1017.8 0.0
12/04:00pm 21.1 19.8 16.7 76 2.7 ENE 19 28 10 15 1018.2 1017.9 0.0
12/03:30pm 21.1 19.7 16.5 75 2.8 E 19 26 10 14 1018.4 1018.1 0.0
12/03:00pm 21.0 19.5 16.2 74 2.9 ENE 19 28 10 15 1018.4 1018.1 0.0
12/02:30pm 21.1 19.0 17.1 78 2.5 ENE 24 32 13 17 1018.4 1018.1 0.0
12/02:27pm 21.0 18.8 17.0 78 2.5 ENE 24 32 13 17 1018.5 1018.2 0.0
12/02:00pm 21.1 20.2 17.7 81 2.1 ENE 19 26 10 14 1018.7 1018.4 0.0
12/01:50pm 20.8 19.7 17.8 83 1.9 ENE 20 30 11 16 1018.8 1018.5 0.0
12/01:30pm 20.9 19.5 17.1 79 2.3 ENE 20 30 11 16 1018.8 1018.5 0.0
12/01:00pm 22.1 19.8 16.6 71 3.4 ENE 24 33 13 18 1018.9 1018.6 0.0
12/12:30pm 21.8 19.8 16.5 72 3.2 ENE 22 32 12 17 1019.3 1019.0 0.0
12/12:00pm 21.8 19.6 17.0 74 2.9 E 24 32 13 17 1019.5 1019.2 0.0
12/11:30am 21.3 20.3 17.9 81 2.1 E 20 28 11 15 1019.8 1019.5 0.0
12/11:00am 20.9 19.0 17.7 82 2.0 ENE 24 30 13 16 1020.0 1019.7 0.0
12/10:30am 21.2 20.1 17.8 81 2.1 NE 20 28 11 15 1020.0 1019.7 0.0
12/10:00am 21.5 20.6 18.1 81 2.1 ENE 20 30 11 16 1020.1 1019.8 0.0
12/09:30am 21.1 20.1 17.9 82 2.0 ENE 20 30 11 16 1020.3 1020.0 0.0
12/09:00am 20.9 19.1 17.9 83 1.9 ENE 24 32 13 17 1020.3 1020.0 0.2
12/08:52am 20.9 19.5 17.9 83 1.9 ENE 22 28 12 15 1020.1 1019.8 0.2
12/08:30am 20.6 19.2 18.0 85 1.6 NE 22 28 12 15 1019.9 1019.6 0.2
12/08:00am 20.2 19.6 18.5 90 1.1 NE 19 24 10 13 1019.9 1019.6 0.2
12/07:30am 20.1 19.0 18.6 91 0.9 ENE 22 30 12 16 1019.9 1019.6 0.2
12/07:00am 20.1 19.7 18.9 93 0.8 ENE 19 26 10 14 1019.9 1019.6 0.2
12/06:30am 19.8 19.4 18.8 94 0.6 NE 19 28 10 15 1019.6 1019.3 0.2
12/06:20am 19.8 19.4 19.0 95 0.5 ENE 19 24 10 13 1019.5 1019.2 0.2
12/06:00am 19.7 19.7 19.0 96 0.4 ENE 17 22 9 12 1019.4 1019.1 0.2
12/05:30am 19.0 19.2 18.5 97 0.3 ENE 15 20 8 11 1019.2 1018.9 0.2
12/05:00am 18.7 19.1 18.2 97 0.3 ENE 13 17 7 9 1019.1 1018.8 0.2
12/04:30am 18.4 19.1 17.9 97 0.3 E 11 15 6 8 1018.9 1018.6 0.2
12/04:00am 18.7 19.5 18.2 97 0.3 ENE 11 15 6 8 1018.8 1018.5 0.2
12/03:33am 18.9 19.3 18.2 96 0.4 ENE 13 17 7 9 1018.8 1018.5 0.2
12/03:30am 18.9 19.3 18.2 96 0.4 ENE 13 17 7 9 1018.8 1018.5 0.2
12/03:00am 19.1 19.2 18.4 96 0.4 ENE 15 20 8 11 1018.8 1018.5 0.2
12/02:30am 19.2 19.8 18.5 96 0.4 E 13 19 7 10 1019.0 1018.7 0.2
12/02:25am 19.1 20.0 18.4 96 0.4 ENE 11 13 6 7 1019.0 1018.7 0.2
12/02:00am 19.0 19.9 18.3 96 0.4 ENE 11 17 6 9 1019.1 1018.8 0.2

Other Formats:

Comma delimited format used in spreadsheet applications
http://www.bom.gov.au/fwo/IDN60801/IDN60801.94996.axf

JavaScript Object Notation format (JSON) in row-major order
http://www.bom.gov.au/fwo/IDN60801/IDN60801.94996.json